Senador Nilo Coelho Airport

SBPL · Pernambouc, Brésil

METAR anciennes SBPL · Senador Nilo Coelho Airport

Tu vois ci-dessous les METAR des derniers jours. Sélectionne une année pour parcourir les METAR plus anciens, à partir de l'année 2007.

15 avril 2024

Temps Code Temps Temp. Vue Base cloud Vent METAR/SPECI
07:00
V
26 °C 10 km+ - 170° 170° 4 kt METAR SBPL 151000Z 17004KT 9999 FEW020 26/23 Q1014
06:00
V
25 °C 10 km+ - 170° 170° 6 kt METAR SBPL 150900Z 17006KT 9999 SCT020 25/23 Q1014
05:00
V
25 °C 10 km+ - 160° 160° 5 kt METAR SBPL 150800Z 16005KT 9999 FEW020 25/23 Q1013
04:00
V
25 °C 10 km+ - 170° 170° 5 kt METAR SBPL 150700Z 17005KT 9999 SCT020 25/23 Q1013
03:00
V
25 °C 10 km+ - 170° 170° 4 kt METAR SBPL 150600Z 17004KT 9999 SCT020 25/23 Q1013
02:00
V
25 °C 10 km+ - 160° 160° 4 kt METAR SBPL 150500Z 16004KT 9999 FEW020 25/22 Q1012
01:00
V
26 °C 10 km+ - 170° 170° 5 kt METAR SBPL 150400Z 17005KT CAVOK 26/22 Q1013
00:00
V
25 °C 10 km+ - 180° 180° 4 kt METAR SBPL 150300Z 18004KT CAVOK 25/21 Q1013

14 avril 2024

Temps Code Temps Temp. Vue Base cloud Vent METAR/SPECI
23:00
V
25 °C 10 km+ - 220° 220° 3 kt METAR SBPL 150200Z 22003KT CAVOK 25/21 Q1013
22:00
V
27 °C 10 km+ - 170° 170° 4 kt METAR SBPL 150100Z 17004KT CAVOK 27/21 Q1013
21:00
V
28 °C 10 km+ - 180° 180° 4 kt METAR SBPL 150000Z 18004KT CAVOK 28/20 Q1012
20:00
V
29 °C 10 km+ - 180° 180° 8 kt METAR SBPL 142300Z 18008KT CAVOK 29/20 Q1012
19:00
V
29 °C 10 km+ - 180° 180° 6 kt METAR SBPL 142200Z 18006KT CAVOK 29/20 Q1011
18:00
V
30 °C 10 km+ - 180° 180° 5 kt METAR SBPL 142100Z 18005KT CAVOK 30/20 Q1010
17:00
V
32 °C 10 km+ - 160° 160° 7 kt METAR SBPL 142000Z 16007KT CAVOK 32/19 Q1010
16:00
V
33 °C 10 km+ - 180° 180° 6 kt METAR SBPL 141900Z 18006KT 9999 FEW035 33/19 Q1010
15:00
V
33 °C 10 km+ - 230° 230° 4 kt METAR SBPL 141800Z 23004KT 9999 SCT035 33/20 Q1010
14:00
V
33 °C 10 km+ - 170° 170° 7 kt METAR SBPL 141700Z 17007KT 9999 SCT030 33/20 Q1011
13:00
V
32 °C 10 km+ - 190° 190° 12 kt METAR SBPL 141600Z 19012KT 9999 SCT030 32/20 Q1012
12:00
V
31 °C 10 km+ - 160° 160° 6 kt METAR SBPL 141500Z 16006KT 9999 SCT030 31/21 Q1013
11:00
V
29 °C 10 km+ - 180° 180° 10 kt METAR SBPL 141400Z 18010KT 9999 SCT030 29/21 Q1014
10:00
V
29 °C 10 km+ - 170° 170° 10 kt METAR SBPL 141300Z 17010KT 9999 SCT025 29/21 Q1015
09:00
V
27 °C 10 km+ - 160° 160° 6 kt METAR SBPL 141200Z 16006KT 9999 SCT025 27/22 Q1015
08:00
V
26 °C 10 km+ - 160° 160° 8 kt METAR SBPL 141100Z 16008KT 9999 SCT025 26/23 Q1015
07:00
V
25 °C 10 km+ - 150° 150° 5 kt METAR SBPL 141000Z 15005KT CAVOK 25/22 Q1014
06:00
V
24 °C 10 km+ - 170° 170° 6 kt METAR SBPL 140900Z 17006KT CAVOK 24/22 Q1013
05:00
V
24 °C 10 km+ - 160° 160° 5 kt METAR SBPL 140800Z 16005KT CAVOK 24/22 Q1012
04:00
V
24 °C 10 km+ - 190° 190° 4 kt METAR SBPL 140700Z 19004KT CAVOK 24/21 Q1012
03:00
V
24 °C 10 km+ - 180° 180° 4 kt METAR SBPL 140600Z 18004KT CAVOK 24/22 Q1012
02:00
V
24 °C 10 km+ - 160° 160° 4 kt METAR SBPL 140500Z 16004KT CAVOK 24/22 Q1012
01:00
V
25 °C 10 km+ - 180° 180° 4 kt METAR SBPL 140400Z 18004KT CAVOK 25/22 Q1012
00:00
V
24 °C 10 km+ - 200° 200° 4 kt METAR SBPL 140300Z 20004KT CAVOK 24/22 Q1012

13 avril 2024

Temps Code Temps Temp. Vue Base cloud Vent METAR/SPECI
23:00
V
24 °C 10 km+ - 360° 360° 0 kt METAR SBPL 140200Z 00000KT CAVOK 24/22 Q1012
22:00
V
25 °C 10 km+ - 080° 080° 2 kt METAR SBPL 140100Z 08002KT CAVOK 25/22 Q1013
21:00
V
26 °C 10 km+ - 100° 100° 1 kt METAR SBPL 140000Z 10001KT CAVOK 26/22 Q1013
20:00
V
27 °C 10 km+ - 160° 160° 3 kt METAR SBPL 132300Z 16003KT CAVOK 27/21 Q1012
19:00
V
29 °C 10 km+ - 170° 170° 4 kt METAR SBPL 132200Z 17004KT CAVOK 29/21 Q1012
18:00
V
30 °C 10 km+ - 150° 150° 6 kt METAR SBPL 132100Z 15006KT 9999 FEW030 30/21 Q1011
17:00
V
31 °C 10 km+ - 150° 150° 9 kt METAR SBPL 132000Z 15009KT 9999 FEW030 31/21 Q1010
16:00
V
32 °C 10 km+ - 180° 180° 8 kt METAR SBPL 131900Z 18008KT 9999 SCT030 32/22 Q1010
15:00
V
32 °C 10 km+ - 180° 180° 8 kt METAR SBPL 131800Z 18008KT 9999 SCT027 32/22 Q1011
14:00
M
31 °C 10 km+ 2.700 ft 200° 200° 8 kt METAR SBPL 131700Z 20008KT 9999 BKN027 31/23 Q1011
13:00
V
31 °C 10 km+ 7.000 ft 160° 160° 9 kt METAR SBPL 131600Z 16009KT 9999 SCT025 BKN070 31/23 Q1013
12:00
M
30 °C 10 km+ 2.500 ft 180° 180° 8 kt METAR SBPL 131500Z 18008KT 9999 BKN025 30/23 Q1013
11:00
M
29 °C 10 km+ 2.300 ft 150° 150° 9 kt METAR SBPL 131400Z 15009KT 9999 BKN023 29/23 Q1014
10:00
M
28 °C 10 km+ 2.200 ft 150° 150° 8 kt METAR SBPL 131300Z 15008KT 9999 BKN022 28/23 Q1015
09:00
M
27 °C 10 km+ 2.000 ft 170° 170° 7 kt METAR SBPL 131200Z 17007KT 9999 BKN020 27/23 Q1015
08:00
M
26 °C 10 km+ 1.500 ft 170° 170° 8 kt METAR SBPL 131100Z 17008KT 9999 BKN015 26/23 Q1015
07:00
M
25 °C 10 km+ 1.400 ft 180° 180° 5 kt METAR SBPL 131000Z 18005KT 9999 BKN014 25/23 Q1014
06:00
V
24 °C 10 km+ - 170° 170° 5 kt METAR SBPL 130900Z 17005KT 9999 FEW025 24/23 Q1014
05:00
V
25 °C 10 km+ - 170° 170° 7 kt METAR SBPL 130800Z 17007KT CAVOK 25/23 Q1013
04:00
V
25 °C 10 km+ - 190° 190° 6 kt METAR SBPL 130700Z 19006KT CAVOK 25/23 Q1013
03:00
V
25 °C 10 km+ - 180° 180° 7 kt METAR SBPL 130600Z 18007KT CAVOK 25/23 Q1013
Signaler les modifications